Устинкино

СКИДКИ НА СМАРТФОНЫ!

Карта отелей и гостиниц, располагающихся рядом с аэропортом Устинкино :

Устинкино Республика Хакасия 54° 57' 5.6412" N, 89° 41' 10.7988" E
Код аэродрома ИКАО
HD78
Код аэродрома RU
ХД78
Координаты
N54.95157° E089.68633°
Превышение над уровнем моря
440
Основная полоса
13/31
Курс магнитный
132/312
Длина основной ВПП
30
Ширина основной ВПП
30
Покрытие основной ВПП
Твёрдое (бетон)
Освещение ВПП
Нет
Тип: 
Вертодром
Класс аэродрома: 
Принадлежность: 
МО
Статус: 
Действующий
Сайт: 
E-mail аэродрома: 
Страна: 
Россия
Регион: 
Республика Хакасия
Город: 
Дополнительная информация: 
Горный.

Скидки на навигаторы!

Найти трансфер

С помощью этой формы Вы можете найти трансфер из аэропорта Устинкино в город, аэропорт или вокзал:

Погода в аэропортах:

Авиационная погода в Братске

Регион: 
Погода METAR: 
UIBB 190100Z 23005MPS 200V260 9999 -SHRA BKN006 OVC020CB 09/09 Q1004 R30/60D NOSIG RMK QBB200 MT OBSC QFE711/0948
Время наблюдения
2022-08-19T01:00:00Z
Температура C
9.0
Точка росы
9.0
Направление ветра
230
Скорость ветра (узлы)
10
Метео видимость
6.21
Облачность
BKN
OVC
Нижняя граница облачности (футы)
600
2000
Явления погоды
-SHRA
Условия полета
IFR
Аэропорт подробнее: 
BKN – значительная (рассеянная, разорванная) облачность; OVC – сплошная облачность;
-SHRA - слабый ливневой дождь;

Авиационная погода в Усть-Каменогорске

Регион: 
Погода METAR: 
UASK 190255Z 25002MPS 220V330 2100 BR BCFG SCT004 10/07 Q1015 TEMPO 0200 FG BKN002 RMK QBB120 QFE736/0981
Время наблюдения
2022-08-19T02:55:00Z
Температура C
10.0
Точка росы
7.0
Направление ветра
250
Скорость ветра (узлы)
4
Метео видимость
1.3
Облачность
SCT
Нижняя граница облачности (футы)
400
Явления погоды
BR BCFG
Условия полета
IFR
Аэропорт подробнее: 
SCT – разбросанная отдельная облачность;
FG – туман (небо не видно, температура воздуха выше нуля или ноль); BR – дымка (видимость от 1 до 9 км);

Авиационная погода в Сургуте

Регион: 
Погода METAR: 
USRR 190300Z 34004MPS 9999 -SHRA SCT010 BKN017CB 10/09 Q1021 R25/290060 NOSIG RMK QFE760
Время наблюдения
2022-08-19T03:00:00Z
Температура C
10.0
Точка росы
9.0
Направление ветра
340
Скорость ветра (узлы)
8
Метео видимость
6.21
Облачность
SCT
BKN
Нижняя граница облачности (футы)
1000
1700
Явления погоды
-SHRA
Условия полета
MVFR
Аэропорт подробнее: 
SCT – разбросанная отдельная облачность; BKN – значительная (рассеянная, разорванная) облачность;
-SHRA - слабый ливневой дождь;

Авиационная погода в Емельяново

Регион: 
Погода METAR: 
UNKL 190100Z 25003MPS 9999 -SHRA SCT040CB 10/09 Q1010 R29/110060 NOSIG RMK QFE732
Время наблюдения
2022-08-19T01:00:00Z
Температура C
10.0
Точка росы
9.0
Направление ветра
250
Скорость ветра (узлы)
6
Метео видимость
6.21
Облачность
SCT
Нижняя граница облачности (футы)
4000
Явления погоды
-SHRA
Условия полета
VFR
Аэропорт подробнее: 
SCT – разбросанная отдельная облачность;
-SHRA - слабый ливневой дождь;